Time;durP1;ratioP1;P1;durP2;ratioP2;P2;SDS_P1;SDS_P2;PMS_P1;PMS_P2;Temp;Humidity;BMP_temperature;BMP_pressure;BME280_temperature;BME280_humidity;BME280_pressure;Samples;Min_cycle;Max_cycle;Signal;HPM_P1;HPM_P2
2021/10/26 00:00:13;;;;;;;5.95;4.90;;;;;;;;;;5036151;28;20071;-43
2021/10/26 00:02:39;;;;;;;7.38;6.30;;;;;;;;;;5037071;28;20036;-40
2021/10/26 00:05:05;;;;;;;5.72;4.72;;;;;;;;;;5037663;28;20052;-41
2021/10/26 00:07:31;;;;;;;6.55;5.38;;;;;;;;;;5040431;28;20029;-41
2021/10/26 00:09:56;;;;;;;15.20;5.90;;;;;;;;;;5041606;28;20585;-44
2021/10/26 00:12:21;;;;;;;9.40;5.70;;;;;;;;;;5039366;28;20096;-41
2021/10/26 00:14:48;;;;;;;14.05;7.78;;;;;;;;;;5037453;28;20043;-41
2021/10/26 00:17:13;;;;;;;11.77;6.72;;;;;;;;;;5040757;28;20022;-44
2021/10/26 00:19:38;;;;;;;6.82;5.85;;;;;;;;;;5036671;28;20085;-47
2021/10/26 00:22:04;;;;;;;6.13;4.90;;;;;;;;;;5034856;28;20032;-43
2021/10/26 00:24:29;;;;;;;7.32;3.83;;;;;;;;;;5042218;28;20025;-42
2021/10/26 00:26:54;;;;;;;9.40;4.90;;;;;;;;;;5037174;28;20522;-42
2021/10/26 00:29:20;;;;;;;5.03;4.53;;;;;;;;;;5036942;28;20475;-40
2021/10/26 00:31:48;;;;;;;8.93;4.82;;;;;;;;;;5039654;28;20025;-44
2021/10/26 00:34:16;;;;;;;6.53;4.40;;;;;;;;;;5037242;28;20041;-42
2021/10/26 00:36:42;;;;;;;7.60;4.07;;;;;;;;;;5040108;28;20013;-42
2021/10/26 00:39:07;;;;;;;9.27;5.00;;;;;;;;;;5037823;28;20437;-41
2021/10/26 00:41:33;;;;;;;10.55;5.70;;;;;;;;;;5037085;28;20021;-40
2021/10/26 00:43:58;;;;;;;15.52;5.82;;;;;;;;;;5035712;28;20021;-41
2021/10/26 00:46:27;;;;;;;8.70;5.43;;;;;;;;;;5035493;28;20099;-41
2021/10/26 00:48:53;;;;;;;12.57;5.20;;;;;;;;;;5036656;28;20024;-39
2021/10/26 00:51:19;;;;;;;8.48;5.57;;;;;;;;;;5036203;28;20021;-44
2021/10/26 00:53:44;;;;;;;9.48;5.65;;;;;;;;;;5038440;28;20018;-40
2021/10/26 00:56:09;;;;;;;4.70;4.03;;;;;;;;;;5037738;28;20035;-41
2021/10/26 00:58:35;;;;;;;27.48;4.78;;;;;;;;;;5036214;28;20025;-41
2021/10/26 01:01:00;;;;;;;7.75;4.47;;;;;;;;;;5037776;28;20544;-43
2021/10/26 01:03:25;;;;;;;11.35;4.30;;;;;;;;;;5040440;28;20021;-41
2021/10/26 01:05:51;;;;;;;16.42;5.13;;;;;;;;;;5035042;28;20036;-39
2021/10/26 01:08:16;;;;;;;12.70;5.82;;;;;;;;;;5039714;28;20033;-40
2021/10/26 01:10:42;;;;;;;9.55;5.00;;;;;;;;;;5038326;28;20085;-41
2021/10/26 01:13:07;;;;;;;6.78;5.20;;;;;;;;;;5038317;28;20688;-40
2021/10/26 01:15:33;;;;;;;5.97;4.32;;;;;;;;;;5039781;28;20044;-41
2021/10/26 01:17:58;;;;;;;13.68;6.28;;;;;;;;;;5037968;28;20397;-40
2021/10/26 01:20:24;;;;;;;5.95;5.20;;;;;;;;;;5036408;28;20059;-43
2021/10/26 01:22:49;;;;;;;6.97;4.70;;;;;;;;;;5039540;28;20092;-45
2021/10/26 01:25:14;;;;;;;14.10;6.07;;;;;;;;;;5036862;28;20021;-41
2021/10/26 01:27:44;;;;;;;17.02;4.82;;;;;;;;;;5035992;28;20033;-43
2021/10/26 01:30:11;;;;;;;5.20;3.83;;;;;;;;;;5038423;28;20037;-42
2021/10/26 01:32:36;;;;;;;6.78;4.78;;;;;;;;;;5040599;28;20613;-45
2021/10/26 01:35:02;;;;;;;4.93;4.22;;;;;;;;;;5038634;28;20082;-42
2021/10/26 01:37:29;;;;;;;7.88;4.68;;;;;;;;;;5036110;28;20045;-43
2021/10/26 01:39:55;;;;;;;4.60;3.88;;;;;;;;;;5034932;28;20025;-42
2021/10/26 01:42:21;;;;;;;10.00;6.53;;;;;;;;;;5034945;28;20809;-44
2021/10/26 01:44:47;;;;;;;13.35;6.15;;;;;;;;;;5035487;28;20061;-45
2021/10/26 01:47:12;;;;;;;6.30;5.63;;;;;;;;;;5039713;28;20060;-41
2021/10/26 01:49:37;;;;;;;9.30;5.43;;;;;;;;;;5036132;28;20393;-41
2021/10/26 01:52:03;;;;;;;14.75;6.03;;;;;;;;;;5036626;28;20504;-43
2021/10/26 01:54:35;;;;;;;17.50;5.75;;;;;;;;;;5037660;28;20028;-41
2021/10/26 01:57:01;;;;;;;5.60;5.00;;;;;;;;;;5036481;28;20025;-41
2021/10/26 01:59:26;;;;;;;7.72;4.70;;;;;;;;;;5035145;28;20043;-43
2021/10/26 02:01:51;;;;;;;10.38;5.60;;;;;;;;;;5034551;28;20025;-43
2021/10/26 02:04:17;;;;;;;5.38;4.72;;;;;;;;;;5033553;28;20083;-42
2021/10/26 02:06:42;;;;;;;5.68;5.00;;;;;;;;;;5036509;28;20694;-41
2021/10/26 02:09:07;;;;;;;6.35;5.60;;;;;;;;;;5037274;28;20033;-43
2021/10/26 02:11:32;;;;;;;8.35;5.13;;;;;;;;;;5033373;28;20022;-44
2021/10/26 02:13:58;;;;;;;6.80;5.88;;;;;;;;;;5034112;28;20553;-41
2021/10/26 02:16:23;;;;;;;7.57;6.00;;;;;;;;;;5041072;28;20384;-41
2021/10/26 02:18:49;;;;;;;4.93;4.43;;;;;;;;;;5034650;28;20032;-41
2021/10/26 02:21:14;;;;;;;7.03;5.00;;;;;;;;;;5036877;28;20104;-40
2021/10/26 02:23:39;;;;;;;14.73;6.25;;;;;;;;;;5035592;28;20037;-41
2021/10/26 02:26:05;;;;;;;8.13;5.10;;;;;;;;;;5040923;28;20021;-43
2021/10/26 02:28:32;;;;;;;12.50;5.47;;;;;;;;;;5036019;28;20025;-42
2021/10/26 02:30:57;;;;;;;10.98;5.70;;;;;;;;;;5035436;28;20079;-44
2021/10/26 02:33:22;;;;;;;8.57;6.30;;;;;;;;;;5034956;28;20021;-40
2021/10/26 02:35:48;;;;;;;7.30;5.90;;;;;;;;;;5032215;28;20013;-44
2021/10/26 02:38:13;;;;;;;6.22;5.35;;;;;;;;;;5034429;28;20069;-46
2021/10/26 02:40:38;;;;;;;5.22;4.65;;;;;;;;;;5035362;28;20484;-41
2021/10/26 02:43:04;;;;;;;5.13;4.07;;;;;;;;;;5038313;28;20028;-41
2021/10/26 02:45:29;;;;;;;8.68;5.40;;;;;;;;;;5033841;28;20072;-42
2021/10/26 02:47:55;;;;;;;6.18;4.40;;;;;;;;;;5038739;28;20068;-41
2021/10/26 02:50:21;;;;;;;7.95;5.05;;;;;;;;;;5036452;28;20029;-40
2021/10/26 02:52:46;;;;;;;7.38;5.25;;;;;;;;;;5038477;28;20052;-40
2021/10/26 02:55:12;;;;;;;6.15;5.45;;;;;;;;;;5038451;28;20396;-40
2021/10/26 02:57:37;;;;;;;6.97;5.90;;;;;;;;;;5035544;28;20104;-41
2021/10/26 03:00:04;;;;;;;8.65;5.53;;;;;;;;;;5035624;28;20024;-41
2021/10/26 03:02:30;;;;;;;6.57;5.32;;;;;;;;;;5038162;28;20602;-42
2021/10/26 03:04:55;;;;;;;8.52;6.32;;;;;;;;;;5035385;28;20126;-45
2021/10/26 03:07:21;;;;;;;6.97;5.70;;;;;;;;;;5032614;28;20480;-42
2021/10/26 03:09:46;;;;;;;6.53;5.70;;;;;;;;;;5030961;28;20018;-41
2021/10/26 03:12:12;;;;;;;8.82;4.00;;;;;;;;;;5033085;28;20013;-44
2021/10/26 03:14:38;;;;;;;5.57;5.00;;;;;;;;;;5032651;28;20072;-43
2021/10/26 03:17:03;;;;;;;6.78;5.07;;;;;;;;;;5034408;28;20128;-40
2021/10/26 03:19:29;;;;;;;10.65;6.85;;;;;;;;;;5039011;28;20535;-41
2021/10/26 03:21:54;;;;;;;7.05;5.03;;;;;;;;;;5033982;28;20035;-41
2021/10/26 03:24:19;;;;;;;11.85;6.00;;;;;;;;;;5031521;28;20091;-41
2021/10/26 03:26:45;;;;;;;13.80;5.65;;;;;;;;;;5037608;28;20056;-42
2021/10/26 03:29:10;;;;;;;8.52;5.95;;;;;;;;;;5037998;28;20035;-41
2021/10/26 03:31:35;;;;;;;7.03;4.93;;;;;;;;;;5033955;28;20053;-47
2021/10/26 03:34:01;;;;;;;6.95;5.18;;;;;;;;;;5033512;28;20109;-45
2021/10/26 03:36:27;;;;;;;11.77;5.38;;;;;;;;;;5038493;28;20573;-45
2021/10/26 03:38:52;;;;;;;8.15;4.70;;;;;;;;;;5037532;28;20036;-45
2021/10/26 03:41:18;;;;;;;5.90;5.32;;;;;;;;;;5035432;28;20029;-47
2021/10/26 03:43:43;;;;;;;17.13;6.60;;;;;;;;;;5033033;28;20499;-44
2021/10/26 03:46:08;;;;;;;7.88;5.18;;;;;;;;;;5036853;28;20049;-44
2021/10/26 03:48:34;;;;;;;6.85;5.95;;;;;;;;;;5035256;28;20096;-46
2021/10/26 03:50:59;;;;;;;9.05;5.57;;;;;;;;;;5033633;28;20067;-45
2021/10/26 03:53:24;;;;;;;10.63;5.82;;;;;;;;;;5031341;28;20512;-42
2021/10/26 03:55:50;;;;;;;9.80;6.10;;;;;;;;;;5034670;28;20021;-43
2021/10/26 03:58:15;;;;;;;5.80;5.07;;;;;;;;;;5035632;28;20551;-42
2021/10/26 04:00:41;;;;;;;6.03;4.50;;;;;;;;;;5033001;28;20489;-45
2021/10/26 04:03:06;;;;;;;8.57;4.57;;;;;;;;;;5036117;28;20140;-44
2021/10/26 04:10:58;;;;;;;7.40;5.18;;;;;;;;;;5032902;28;20728;-43
2021/10/26 04:13:24;;;;;;;9.15;5.88;;;;;;;;;;5034267;28;20068;-44
2021/10/26 04:15:50;;;;;;;10.45;5.00;;;;;;;;;;5034581;28;20013;-41
2021/10/26 04:18:15;;;;;;;8.10;4.90;;;;;;;;;;5033328;28;20428;-43
2021/10/26 04:20:41;;;;;;;5.20;3.38;;;;;;;;;;5036333;28;20443;-44
2021/10/26 04:23:07;;;;;;;11.27;4.88;;;;;;;;;;5034021;28;20484;-42
2021/10/26 04:25:32;;;;;;;10.30;4.25;;;;;;;;;;5035003;28;20134;-44
2021/10/26 04:28:01;;;;;;;7.68;4.38;;;;;;;;;;5033900;28;20476;-43
2021/10/26 04:30:27;;;;;;;7.88;4.80;;;;;;;;;;5038396;28;20055;-42
2021/10/26 04:32:52;;;;;;;4.32;3.42;;;;;;;;;;5036354;28;20511;-42
2021/10/26 04:35:17;;;;;;;9.73;4.20;;;;;;;;;;5034267;28;20017;-42
2021/10/26 04:37:43;;;;;;;5.90;3.83;;;;;;;;;;5033676;28;20108;-41
2021/10/26 04:40:08;;;;;;;9.13;4.18;;;;;;;;;;5036787;28;20029;-41
2021/10/26 04:42:34;;;;;;;12.18;3.70;;;;;;;;;;5032418;28;20021;-41
2021/10/26 04:44:59;;;;;;;6.47;3.90;;;;;;;;;;5035137;28;20526;-42
2021/10/26 04:47:26;;;;;;;10.00;4.18;;;;;;;;;;5036673;28;20030;-45
2021/10/26 04:49:52;;;;;;;8.65;4.25;;;;;;;;;;5039859;28;20025;-42
2021/10/26 04:52:17;;;;;;;7.75;5.05;;;;;;;;;;5037468;28;20082;-42
2021/10/26 04:54:42;;;;;;;7.93;4.85;;;;;;;;;;5035874;28;20064;-41
2021/10/26 04:57:08;;;;;;;4.43;3.95;;;;;;;;;;5035474;28;20496;-41
2021/10/26 04:59:33;;;;;;;4.75;4.18;;;;;;;;;;5039166;28;20030;-44
2021/10/26 05:01:59;;;;;;;4.57;3.38;;;;;;;;;;5034928;28;20187;-41
2021/10/26 05:04:24;;;;;;;8.57;5.97;;;;;;;;;;5034920;28;20532;-47
2021/10/26 05:06:50;;;;;;;8.52;4.60;;;;;;;;;;5037624;28;20032;-43
2021/10/26 05:09:15;;;;;;;6.80;6.03;;;;;;;;;;5035525;28;20127;-42
2021/10/26 05:11:41;;;;;;;6.53;4.75;;;;;;;;;;5034893;28;20520;-42
2021/10/26 05:14:06;;;;;;;5.63;4.47;;;;;;;;;;5039095;28;20017;-42
2021/10/26 05:16:32;;;;;;;8.00;4.90;;;;;;;;;;5036771;28;20515;-43
2021/10/26 05:19:01;;;;;;;6.38;4.43;;;;;;;;;;5036916;28;20280;-44
2021/10/26 05:21:26;;;;;;;8.23;4.93;;;;;;;;;;5038472;28;20108;-42
2021/10/26 05:23:52;;;;;;;12.27;5.18;;;;;;;;;;5036433;28;20092;-44
2021/10/26 05:26:18;;;;;;;6.18;4.70;;;;;;;;;;5035110;28;20090;-43
2021/10/26 05:28:45;;;;;;;25.08;5.70;;;;;;;;;;5038465;28;20021;-43
2021/10/26 05:31:10;;;;;;;6.97;4.90;;;;;;;;;;5036767;28;20056;-43
2021/10/26 05:33:37;;;;;;;8.80;6.90;;;;;;;;;;5033302;28;20033;-45
2021/10/26 05:36:03;;;;;;;12.13;6.55;;;;;;;;;;5032918;28;20013;-43
2021/10/26 05:38:28;;;;;;;4.95;4.47;;;;;;;;;;5039098;28;20032;-42
2021/10/26 05:40:54;;;;;;;4.25;3.70;;;;;;;;;;5036563;28;20028;-44
2021/10/26 05:43:19;;;;;;;6.25;5.53;;;;;;;;;;5036839;28;20027;-41
2021/10/26 05:45:47;;;;;;;7.43;6.28;;;;;;;;;;5039078;28;20049;-42
2021/10/26 05:48:13;;;;;;;4.85;4.18;;;;;;;;;;5036701;28;20426;-41
2021/10/26 05:50:39;;;;;;;13.55;4.75;;;;;;;;;;5038276;28;20120;-41
2021/10/26 05:53:04;;;;;;;11.25;4.20;;;;;;;;;;5034329;28;20457;-42
2021/10/26 05:55:30;;;;;;;7.03;6.07;;;;;;;;;;5036282;28;20021;-44
2021/10/26 05:57:55;;;;;;;6.78;6.07;;;;;;;;;;5035031;28;20025;-42
2021/10/26 06:00:21;;;;;;;7.45;5.50;;;;;;;;;;5036828;28;20124;-45
2021/10/26 06:02:46;;;;;;;7.03;5.47;;;;;;;;;;5038436;28;20025;-42
2021/10/26 06:05:11;;;;;;;10.05;5.80;;;;;;;;;;5037261;28;20052;-43
2021/10/26 06:07:37;;;;;;;9.38;5.47;;;;;;;;;;5037024;28;20029;-42
2021/10/26 06:10:03;;;;;;;7.82;6.18;;;;;;;;;;5038348;28;20468;-43
2021/10/26 06:12:31;;;;;;;9.95;7.80;;;;;;;;;;5036992;28;20058;-43
2021/10/26 06:14:56;;;;;;;9.57;7.45;;;;;;;;;;5033296;28;20025;-41
2021/10/26 06:17:21;;;;;;;8.85;7.63;;;;;;;;;;5033449;28;20033;-43
2021/10/26 06:19:46;;;;;;;10.00;7.63;;;;;;;;;;5037048;28;20017;-46
2021/10/26 06:22:12;;;;;;;13.75;7.25;;;;;;;;;;5036056;28;20415;-46
2021/10/26 06:24:37;;;;;;;5.28;4.63;;;;;;;;;;5035843;28;20124;-41
2021/10/26 06:27:03;;;;;;;6.80;6.10;;;;;;;;;;5035846;28;20025;-42
2021/10/26 06:29:28;;;;;;;5.72;5.20;;;;;;;;;;5034851;28;20393;-41
2021/10/26 06:31:53;;;;;;;14.40;8.43;;;;;;;;;;5040085;28;20480;-41
2021/10/26 06:34:18;;;;;;;5.57;5.05;;;;;;;;;;5035686;28;20020;-42
2021/10/26 06:36:44;;;;;;;8.57;6.45;;;;;;;;;;5036120;28;20060;-41
2021/10/26 06:39:09;;;;;;;8.90;7.80;;;;;;;;;;5038088;28;20017;-40
2021/10/26 06:41:34;;;;;;;16.73;6.50;;;;;;;;;;5037798;28;20491;-40
2021/10/26 06:44:01;;;;;;;14.80;9.65;;;;;;;;;;5037403;28;20020;-41
2021/10/26 06:46:26;;;;;;;13.40;8.55;;;;;;;;;;5038065;28;20057;-43
2021/10/26 06:48:51;;;;;;;19.83;8.23;;;;;;;;;;5035622;28;20017;-44
2021/10/26 06:51:16;;;;;;;34.03;10.85;;;;;;;;;;5034333;28;20276;-42
2021/10/26 06:53:43;;;;;;;14.35;7.88;;;;;;;;;;5032670;28;20056;-44
2021/10/26 06:56:14;;;;;;;7.53;6.70;;;;;;;;;;5034664;28;20446;-41
2021/10/26 06:58:40;;;;;;;7.70;6.38;;;;;;;;;;5035156;28;20025;-41
2021/10/26 07:01:07;;;;;;;20.15;9.93;;;;;;;;;;5031617;28;20056;-42
2021/10/26 07:03:34;;;;;;;11.82;7.68;;;;;;;;;;5032279;28;20029;-42
2021/10/26 07:05:59;;;;;;;16.30;7.95;;;;;;;;;;5035968;28;20696;-43
2021/10/26 07:08:24;;;;;;;17.63;8.75;;;;;;;;;;5031546;28;20057;-42
2021/10/26 07:10:51;;;;;;;21.77;8.18;;;;;;;;;;5034432;28;20159;-41
2021/10/26 07:13:16;;;;;;;12.27;7.75;;;;;;;;;;5037663;28;20083;-40
2021/10/26 07:15:42;;;;;;;9.30;6.22;;;;;;;;;;5034999;28;20029;-40
2021/10/26 07:18:08;;;;;;;16.10;8.93;;;;;;;;;;5034065;28;20021;-40
2021/10/26 07:20:33;;;;;;;14.75;6.80;;;;;;;;;;5032566;28;20033;-41
2021/10/26 07:22:58;;;;;;;11.63;6.93;;;;;;;;;;5034684;28;20029;-43
2021/10/26 07:25:24;;;;;;;20.40;8.15;;;;;;;;;;5032413;28;20029;-42
2021/10/26 07:27:53;;;;;;;20.65;9.55;;;;;;;;;;5035040;28;20063;-43
2021/10/26 07:30:18;;;;;;;34.78;12.70;;;;;;;;;;5032897;28;20027;-45
2021/10/26 07:32:44;;;;;;;144.30;93.57;;;;;;;;;;5032019;28;20010;-42
2021/10/26 07:35:09;;;;;;;117.53;73.43;;;;;;;;;;5031462;28;20032;-40
2021/10/26 07:37:44;;;;;;;99.53;70.18;;;;;;;;;;5035056;28;20040;-42
2021/10/26 07:40:10;;;;;;;94.93;45.92;;;;;;;;;;5036246;28;20489;-40
2021/10/26 07:42:35;;;;;;;40.13;20.38;;;;;;;;;;5035023;28;20025;-42
2021/10/26 07:45:00;;;;;;;23.02;18.10;;;;;;;;;;5038011;28;20582;-40
2021/10/26 07:47:26;;;;;;;43.13;21.35;;;;;;;;;;5034387;28;20059;-46
2021/10/26 07:49:52;;;;;;;62.92;38.63;;;;;;;;;;5034341;28;20049;-43
2021/10/26 07:52:18;;;;;;;41.00;32.60;;;;;;;;;;5039422;28;20047;-43
2021/10/26 07:54:52;;;;;;;59.13;29.60;;;;;;;;;;5032717;28;20068;-41
2021/10/26 07:57:24;;;;;;;31.20;18.10;;;;;;;;;;5033943;28;20030;-40
2021/10/26 07:59:50;;;;;;;27.15;18.08;;;;;;;;;;5032595;28;20511;-42
2021/10/26 08:02:17;;;;;;;21.63;15.20;;;;;;;;;;5033066;28;20025;-40
2021/10/26 08:04:43;;;;;;;23.60;14.65;;;;;;;;;;5031634;28;20021;-40
2021/10/26 08:07:09;;;;;;;17.00;15.20;;;;;;;;;;5035894;28;20392;-42
2021/10/26 08:09:35;;;;;;;24.45;17.52;;;;;;;;;;5033248;28;20422;-44
2021/10/26 08:12:00;;;;;;;20.90;16.55;;;;;;;;;;5031462;28;20104;-43
2021/10/26 08:14:26;;;;;;;55.28;23.80;;;;;;;;;;5032547;28;20172;-43
2021/10/26 08:16:51;;;;;;;31.73;19.02;;;;;;;;;;5034462;28;20116;-43
2021/10/26 08:19:17;;;;;;;39.03;22.80;;;;;;;;;;5034862;28;20070;-41
2021/10/26 08:21:42;;;;;;;39.33;23.85;;;;;;;;;;5034701;28;20479;-41
2021/10/26 08:24:08;;;;;;;45.13;29.30;;;;;;;;;;5037541;28;20480;-41
2021/10/26 08:26:45;;;;;;;56.80;36.13;;;;;;;;;;5039179;28;20075;-41
2021/10/26 08:29:32;;;;;;;29.60;24.65;;;;;;;;;;5036551;28;20025;-40
2021/10/26 08:37:10;;;;;;;37.50;22.05;;;;;;;;;;5039236;28;20064;-47
2021/10/26 08:39:36;;;;;;;26.33;17.45;;;;;;;;;;5037427;28;20045;-41
2021/10/26 08:42:02;;;;;;;23.60;20.98;;;;;;;;;;5033053;28;20507;-40
2021/10/26 08:44:27;;;;;;;25.25;15.95;;;;;;;;;;5036622;28;20025;-42
2021/10/26 08:46:53;;;;;;;18.58;9.70;;;;;;;;;;5037636;28;20084;-44
2021/10/26 08:49:19;;;;;;;30.45;9.45;;;;;;;;;;5035880;28;20410;-41
2021/10/26 08:51:46;;;;;;;10.23;6.93;;;;;;;;;;5036884;28;20504;-40
2021/10/26 08:54:12;;;;;;;8.95;6.30;;;;;;;;;;5039771;28;20048;-43
2021/10/26 08:56:37;;;;;;;5.32;3.80;;;;;;;;;;5035459;28;20071;-40
2021/10/26 08:59:03;;;;;;;11.55;6.82;;;;;;;;;;5042374;28;20021;-43
2021/10/26 09:01:29;;;;;;;7.43;2.53;;;;;;;;;;5037339;28;20445;-42
2021/10/26 09:04:08;;;;;;;9.48;8.57;;;;;;;;;;5037403;28;20079;-41
2021/10/26 09:06:43;;;;;;;22.80;16.30;;;;;;;;;;5035187;28;20025;-41
2021/10/26 09:09:24;;;;;;;18.80;11.02;;;;;;;;;;5035816;28;20574;-41
2021/10/26 09:17:26;;;;;;;9.30;2.08;;;;;;;;;;5037234;28;20471;-41
2021/10/26 09:19:53;;;;;;;4.15;1.48;;;;;;;;;;5035886;28;20033;-40
2021/10/26 09:22:18;;;;;;;1.88;1.20;;;;;;;;;;5038110;28;20032;-41
2021/10/26 09:24:54;;;;;;;5.15;1.55;;;;;;;;;;5038042;28;20029;-42
2021/10/26 09:27:21;;;;;;;2.97;1.58;;;;;;;;;;5039331;28;20514;-40
2021/10/26 09:29:50;;;;;;;1.77;1.15;;;;;;;;;;5038313;28;20083;-40
2021/10/26 09:32:16;;;;;;;2.80;1.45;;;;;;;;;;5035471;28;20012;-39
2021/10/26 09:34:43;;;;;;;7.40;2.75;;;;;;;;;;5039002;28;20022;-42
2021/10/26 09:37:09;;;;;;;4.28;2.38;;;;;;;;;;5032964;28;20099;-39
2021/10/26 09:39:35;;;;;;;2.38;1.80;;;;;;;;;;5036084;28;20645;-41
2021/10/26 09:42:08;;;;;;;7.55;2.75;;;;;;;;;;5039440;28;20032;-43
2021/10/26 09:44:39;;;;;;;2.17;1.35;;;;;;;;;;5035466;28;20492;-51
2021/10/26 09:47:04;;;;;;;0.45;0.35;;;;;;;;;;5035993;28;20563;-46
2021/10/26 09:49:34;;;;;;;3.80;1.33;;;;;;;;;;5033268;28;20056;-48
2021/10/26 09:52:09;;;;;;;3.45;1.80;;;;;;;;;;5035509;28;20568;-45
2021/10/26 09:54:35;;;;;;;2.38;0.65;;;;;;;;;;5033673;28;20100;-50
2021/10/26 09:57:02;;;;;;;1.75;0.80;;;;;;;;;;5038382;28;20127;-48
2021/10/26 09:59:27;;;;;;;4.85;1.65;;;;;;;;;;5038336;28;20028;-46
2021/10/26 10:01:53;;;;;;;2.22;0.93;;;;;;;;;;5036174;28;20017;-46
2021/10/26 10:04:29;;;;;;;1.27;0.82;;;;;;;;;;5036258;28;20033;-46
2021/10/26 10:06:54;;;;;;;1.48;1.10;;;;;;;;;;5034612;28;20100;-51
2021/10/26 10:09:20;;;;;;;5.50;1.63;;;;;;;;;;5037597;28;20558;-47
2021/10/26 10:11:58;;;;;;;4.50;1.02;;;;;;;;;;5039681;28;20029;-47
2021/10/26 10:14:24;;;;;;;2.10;0.85;;;;;;;;;;5037872;28;20484;-52
2021/10/26 10:16:53;;;;;;;11.13;5.03;;;;;;;;;;5039255;28;20081;-47
2021/10/26 10:19:19;;;;;;;3.35;0.93;;;;;;;;;;5038261;28;20025;-44
2021/10/26 10:21:45;;;;;;;6.10;1.17;;;;;;;;;;5033875;28;20480;-44
2021/10/26 10:24:13;;;;;;;2.25;1.02;;;;;;;;;;5034963;28;20794;-40
2021/10/26 10:26:38;;;;;;;1.67;0.88;;;;;;;;;;5034391;28;20059;-43
2021/10/26 10:29:04;;;;;;;4.28;1.75;;;;;;;;;;5038289;28;20041;-47
2021/10/26 10:31:29;;;;;;;6.78;1.25;;;;;;;;;;5037250;28;20302;-47
2021/10/26 10:33:57;;;;;;;4.22;1.30;;;;;;;;;;5035729;28;20017;-45
2021/10/26 10:36:23;;;;;;;5.40;1.20;;;;;;;;;;5034926;28;20449;-43
2021/10/26 10:38:49;;;;;;;2.00;1.52;;;;;;;;;;5036819;28;20021;-44
2021/10/26 10:41:24;;;;;;;5.65;1.08;;;;;;;;;;5037567;28;20021;-46
2021/10/26 10:43:50;;;;;;;9.18;1.27;;;;;;;;;;5038937;28;20040;-48
2021/10/26 10:46:48;;;;;;;2.58;1.77;;;;;;;;;;5035638;28;20045;-44
2021/10/26 10:49:28;;;;;;;5.10;1.33;;;;;;;;;;5024276;28;20163;-46
2021/10/26 10:51:54;;;;;;;1.98;0.98;;;;;;;;;;5035512;28;20026;-49
2021/10/26 10:54:38;;;;;;;2.70;1.55;;;;;;;;;;5033303;28;20029;-45
2021/10/26 10:57:18;;;;;;;6.93;1.45;;;;;;;;;;5037052;28;20029;-44
2021/10/26 10:59:44;;;;;;;1.65;1.17;;;;;;;;;;5037342;28;20021;-47
2021/10/26 11:02:28;;;;;;;10.23;1.27;;;;;;;;;;5037155;28;20025;-44
2021/10/26 11:04:54;;;;;;;7.28;2.28;;;;;;;;;;5035966;28;20029;-42
2021/10/26 11:07:42;;;;;;;2.30;0.88;;;;;;;;;;5031212;28;20031;-50
2021/10/26 11:10:13;;;;;;;13.93;1.65;;;;;;;;;;5032466;28;20049;-47
2021/10/26 11:12:38;;;;;;;2.03;1.17;;;;;;;;;;5033693;28;20099;-43
2021/10/26 11:15:05;;;;;;;11.40;2.05;;;;;;;;;;5036599;28;20029;-43
2021/10/26 11:17:40;;;;;;;6.88;1.35;;;;;;;;;;5035757;28;20033;-42
2021/10/26 11:20:07;;;;;;;2.22;1.05;;;;;;;;;;5036184;28;20017;-46
2021/10/26 11:22:45;;;;;;;2.53;1.08;;;;;;;;;;5037245;28;20232;-42
2021/10/26 11:25:29;;;;;;;2.05;1.05;;;;;;;;;;5038092;28;20025;-42
2021/10/26 11:27:55;;;;;;;2.78;1.75;;;;;;;;;;5036419;28;20408;-43
2021/10/26 11:30:32;;;;;;;0.98;0.60;;;;;;;;;;5033660;28;20029;-44
2021/10/26 11:33:13;;;;;;;4.68;3.05;;;;;;;;;;5034642;28;20021;-43
2021/10/26 11:36:11;;;;;;;2.78;1.33;;;;;;;;;;5036854;28;20021;-43
2021/10/26 11:38:38;;;;;;;2.42;1.25;;;;;;;;;;5033324;28;20028;-45
2021/10/26 11:41:07;;;;;;;1.77;0.80;;;;;;;;;;5039039;28;20021;-45
2021/10/26 11:43:39;;;;;;;3.90;1.40;;;;;;;;;;5035565;28;20040;-45
2021/10/26 11:46:05;;;;;;;1.17;0.65;;;;;;;;;;5034176;28;20049;-44
2021/10/26 11:48:37;;;;;;;2.30;1.08;;;;;;;;;;5037613;28;20036;-45
2021/10/26 11:51:21;;;;;;;2.85;1.08;;;;;;;;;;5038032;28;20484;-44
2021/10/26 11:53:47;;;;;;;1.77;1.00;;;;;;;;;;5039481;28;20025;-44
2021/10/26 11:56:18;;;;;;;2.03;1.08;;;;;;;;;;5038112;28;20018;-45
2021/10/26 11:58:53;;;;;;;4.25;2.47;;;;;;;;;;5035378;28;20013;-43
2021/10/26 12:01:20;;;;;;;3.03;1.23;;;;;;;;;;5041982;28;20017;-44
2021/10/26 12:03:47;;;;;;;1.77;0.77;;;;;;;;;;5035585;28;20107;-45
2021/10/26 12:06:12;;;;;;;2.10;1.20;;;;;;;;;;5041053;28;20048;-44
2021/10/26 12:08:39;;;;;;;3.50;1.42;;;;;;;;;;5039532;28;20445;-43
2021/10/26 12:11:05;;;;;;;2.42;1.02;;;;;;;;;;5041492;28;20024;-47
2021/10/26 12:13:31;;;;;;;4.53;1.77;;;;;;;;;;5043790;28;20101;-46
2021/10/26 12:15:58;;;;;;;2.03;0.93;;;;;;;;;;5043037;28;20108;-45
2021/10/26 12:18:33;;;;;;;7.85;1.15;;;;;;;;;;5040466;28;20013;-48
2021/10/26 12:21:04;;;;;;;4.45;2.63;;;;;;;;;;5036600;28;20272;-51
2021/10/26 12:23:29;;;;;;;6.95;1.17;;;;;;;;;;5037213;28;20048;-48
2021/10/26 12:25:57;;;;;;;3.15;0.95;;;;;;;;;;5039041;28;20049;-48
2021/10/26 12:28:24;;;;;;;2.90;0.85;;;;;;;;;;5037744;28;20047;-45
2021/10/26 12:30:50;;;;;;;0.95;0.63;;;;;;;;;;5039978;28;20507;-45
2021/10/26 12:33:18;;;;;;;5.43;1.90;;;;;;;;;;5038338;28;20025;-44
2021/10/26 12:35:43;;;;;;;1.73;0.77;;;;;;;;;;5042100;28;20499;-44
2021/10/26 12:38:11;;;;;;;1.85;0.73;;;;;;;;;;5042287;28;20029;-44
2021/10/26 12:40:38;;;;;;;1.77;0.80;;;;;;;;;;5040359;28;20025;-45
2021/10/26 12:43:05;;;;;;;3.70;0.80;;;;;;;;;;5042054;28;20116;-44
2021/10/26 12:45:35;;;;;;;1.30;0.80;;;;;;;;;;5038839;28;20041;-49
2021/10/26 12:48:02;;;;;;;0.95;0.63;;;;;;;;;;5037984;28;20018;-51
2021/10/26 12:50:28;;;;;;;0.85;0.50;;;;;;;;;;5039530;28;20070;-47
2021/10/26 12:53:13;;;;;;;4.05;0.70;;;;;;;;;;5041803;28;20412;-45
2021/10/26 12:55:43;;;;;;;1.02;0.60;;;;;;;;;;5037739;28;20021;-45
2021/10/26 12:58:27;;;;;;;1.92;0.63;;;;;;;;;;5042077;28;20028;-44
2021/10/26 13:00:52;;;;;;;0.88;0.68;;;;;;;;;;5034737;28;20179;-46
2021/10/26 13:03:21;;;;;;;1.67;0.95;;;;;;;;;;5038286;28;20528;-44
2021/10/26 13:05:51;;;;;;;10.65;1.00;;;;;;;;;;5039257;28;20499;-49
2021/10/26 13:08:18;;;;;;;0.98;0.70;;;;;;;;;;5038328;28;20048;-44
2021/10/26 13:10:43;;;;;;;1.55;0.95;;;;;;;;;;5036212;28;20021;-51
2021/10/26 13:13:08;;;;;;;4.18;0.95;;;;;;;;;;5046445;28;20061;-50
2021/10/26 13:15:34;;;;;;;4.15;1.08;;;;;;;;;;5049763;28;20021;-47
2021/10/26 13:18:04;;;;;;;5.70;0.90;;;;;;;;;;5039409;28;20053;-48
2021/10/26 13:20:35;;;;;;;2.13;1.50;;;;;;;;;;5034096;28;20021;-57
2021/10/26 13:23:05;;;;;;;3.65;1.85;;;;;;;;;;5038950;28;20033;-58
2021/10/26 13:25:34;;;;;;;2.15;1.33;;;;;;;;;;5043568;28;20426;-58
2021/10/26 13:28:04;;;;;;;2.03;0.90;;;;;;;;;;5039664;28;20018;-58
2021/10/26 13:30:33;;;;;;;1.70;0.73;;;;;;;;;;5038208;28;20013;-58
2021/10/26 13:32:59;;;;;;;5.43;0.63;;;;;;;;;;5036688;28;20477;-59
2021/10/26 13:35:25;;;;;;;2.22;1.17;;;;;;;;;;5042228;28;20056;-58
2021/10/26 13:37:50;;;;;;;3.33;0.98;;;;;;;;;;5041249;28;20660;-58
2021/10/26 13:40:15;;;;;;;0.65;0.45;;;;;;;;;;5040358;28;20036;-59
2021/10/26 13:42:41;;;;;;;1.42;0.60;;;;;;;;;;5038442;28;20468;-59
2021/10/26 13:45:07;;;;;;;2.13;0.80;;;;;;;;;;5041157;28;20379;-57
2021/10/26 13:47:39;;;;;;;2.30;0.45;;;;;;;;;;5040806;28;20222;-57
2021/10/26 13:50:05;;;;;;;5.22;1.25;;;;;;;;;;5040548;28;20484;-57
2021/10/26 13:52:30;;;;;;;3.05;1.13;;;;;;;;;;5040230;28;20024;-56
2021/10/26 13:54:55;;;;;;;0.75;0.55;;;;;;;;;;5040026;28;20040;-55
2021/10/26 13:57:22;;;;;;;15.82;14.23;;;;;;;;;;5036763;28;20366;-57
2021/10/26 13:59:47;;;;;;;5.32;3.15;;;;;;;;;;5038481;28;20569;-57
2021/10/26 14:02:12;;;;;;;1.50;0.90;;;;;;;;;;5041444;28;20041;-57
2021/10/26 14:04:38;;;;;;;1.80;1.00;;;;;;;;;;5038958;28;20019;-57
2021/10/26 14:07:03;;;;;;;1.17;0.73;;;;;;;;;;5040104;28;20017;-57
2021/10/26 14:09:28;;;;;;;2.13;0.75;;;;;;;;;;5038767;28;20017;-57
2021/10/26 14:11:54;;;;;;;2.67;0.65;;;;;;;;;;5039979;28;20017;-57
2021/10/26 14:14:19;;;;;;;4.18;1.85;;;;;;;;;;5041271;28;20078;-56
2021/10/26 14:16:45;;;;;;;0.85;0.35;;;;;;;;;;5038712;28;20013;-55
2021/10/26 14:19:10;;;;;;;12.75;1.45;;;;;;;;;;5039223;28;20524;-58
2021/10/26 14:21:35;;;;;;;2.90;1.17;;;;;;;;;;5039597;28;20009;-58
2021/10/26 14:24:01;;;;;;;3.03;1.00;;;;;;;;;;5035505;28;20053;-58
2021/10/26 14:26:27;;;;;;;5.07;1.85;;;;;;;;;;5035828;28;20037;-58
2021/10/26 14:28:52;;;;;;;3.15;1.23;;;;;;;;;;5034490;28;20036;-57
2021/10/26 14:31:19;;;;;;;5.68;1.98;;;;;;;;;;5030510;28;20025;-58
2021/10/26 14:33:45;;;;;;;0.70;0.65;;;;;;;;;;5036465;28;20025;-50
2021/10/26 14:36:19;;;;;;;4.32;1.38;;;;;;;;;;5039453;28;20104;-49
2021/10/26 14:38:57;;;;;;;1.75;0.63;;;;;;;;;;5037231;28;20185;-48
2021/10/26 14:55:04;;;;;;;1.70;1.23;;;;;;;;;;5033870;28;20783;-51
2021/10/26 14:57:30;;;;;;;4.50;1.65;;;;;;;;;;5033548;28;20109;-48
2021/10/26 14:59:55;;;;;;;1.33;0.65;;;;;;;;;;5033529;28;20464;-49
2021/10/26 15:02:21;;;;;;;2.00;0.93;;;;;;;;;;5034714;28;20032;-49
2021/10/26 15:04:46;;;;;;;6.22;1.50;;;;;;;;;;5035309;28;20105;-52
2021/10/26 15:07:12;;;;;;;0.80;0.63;;;;;;;;;;5033970;28;20075;-47